sensor_id;sensor_type;location;lat;lon;timestamp;temperature;humidity
80228;DHT22;69539;42.138;24.742;2023-06-14T00:00:10;24.90;48.40
80228;DHT22;69539;42.138;24.742;2023-06-14T00:02:38;24.90;48.40
80228;DHT22;69539;42.138;24.742;2023-06-14T00:05:04;24.90;48.40
80228;DHT22;69539;42.138;24.742;2023-06-14T00:07:34;24.90;48.50
80228;DHT22;69539;42.138;24.742;2023-06-14T00:10:00;24.90;48.60
80228;DHT22;69539;42.138;24.742;2023-06-14T00:12:26;24.90;48.70
80228;DHT22;69539;42.138;24.742;2023-06-14T00:14:51;24.80;48.80
80228;DHT22;69539;42.138;24.742;2023-06-14T00:17:17;24.80;48.80
80228;DHT22;69539;42.138;24.742;2023-06-14T00:19:42;24.80;48.90
80228;DHT22;69539;42.138;24.742;2023-06-14T00:22:08;24.80;49.00
80228;DHT22;69539;42.138;24.742;2023-06-14T00:24:34;24.80;49.10
80228;DHT22;69539;42.138;24.742;2023-06-14T00:27:00;24.80;49.30
80228;DHT22;69539;42.138;24.742;2023-06-14T00:29:26;24.70;49.20
80228;DHT22;69539;42.138;24.742;2023-06-14T00:31:51;24.70;49.30
80228;DHT22;69539;42.138;24.742;2023-06-14T00:34:17;24.70;49.80
80228;DHT22;69539;42.138;24.742;2023-06-14T00:36:42;24.70;49.50
80228;DHT22;69539;42.138;24.742;2023-06-14T00:39:08;24.70;49.50
80228;DHT22;69539;42.138;24.742;2023-06-14T00:41:35;24.70;49.70
80228;DHT22;69539;42.138;24.742;2023-06-14T00:44:00;24.70;49.90
80228;DHT22;69539;42.138;24.742;2023-06-14T00:46:26;24.70;49.80
80228;DHT22;69539;42.138;24.742;2023-06-14T00:48:51;24.70;49.90
80228;DHT22;69539;42.138;24.742;2023-06-14T00:51:17;24.70;50.00
80228;DHT22;69539;42.138;24.742;2023-06-14T00:53:43;24.60;50.20
80228;DHT22;69539;42.138;24.742;2023-06-14T00:56:12;24.70;50.30
80228;DHT22;69539;42.138;24.742;2023-06-14T00:58:38;24.60;50.30
80228;DHT22;69539;42.138;24.742;2023-06-14T01:01:04;24.60;50.30
80228;DHT22;69539;42.138;24.742;2023-06-14T01:03:30;24.60;50.40
80228;DHT22;69539;42.138;24.742;2023-06-14T01:11:26;24.60;50.50
80228;DHT22;69539;42.138;24.742;2023-06-14T01:13:54;24.60;50.70
80228;DHT22;69539;42.138;24.742;2023-06-14T01:16:21;24.60;50.80
80228;DHT22;69539;42.138;24.742;2023-06-14T01:18:46;24.60;50.80
80228;DHT22;69539;42.138;24.742;2023-06-14T01:21:20;24.50;50.80
80228;DHT22;69539;42.138;24.742;2023-06-14T01:23:46;24.50;50.90
80228;DHT22;69539;42.138;24.742;2023-06-14T01:26:23;24.50;51.00
80228;DHT22;69539;42.138;24.742;2023-06-14T01:28:51;24.50;51.20
80228;DHT22;69539;42.138;24.742;2023-06-14T01:31:19;24.50;51.10
80228;DHT22;69539;42.138;24.742;2023-06-14T01:33:47;24.50;51.20
80228;DHT22;69539;42.138;24.742;2023-06-14T01:36:13;24.50;51.10
80228;DHT22;69539;42.138;24.742;2023-06-14T01:38:39;24.50;51.20
80228;DHT22;69539;42.138;24.742;2023-06-14T01:41:05;24.50;51.30
80228;DHT22;69539;42.138;24.742;2023-06-14T01:43:31;24.50;51.40
80228;DHT22;69539;42.138;24.742;2023-06-14T01:45:57;24.50;51.50
80228;DHT22;69539;42.138;24.742;2023-06-14T01:48:23;24.50;51.40
80228;DHT22;69539;42.138;24.742;2023-06-14T01:50:49;24.40;51.40
80228;DHT22;69539;42.138;24.742;2023-06-14T01:53:15;24.40;51.50
80228;DHT22;69539;42.138;24.742;2023-06-14T01:55:41;24.40;51.60
80228;DHT22;69539;42.138;24.742;2023-06-14T01:58:09;24.40;51.80
80228;DHT22;69539;42.138;24.742;2023-06-14T02:00:35;24.40;51.80
80228;DHT22;69539;42.138;24.742;2023-06-14T02:03:01;24.40;51.80
80228;DHT22;69539;42.138;24.742;2023-06-14T02:05:26;24.40;51.90
80228;DHT22;69539;42.138;24.742;2023-06-14T02:07:52;24.40;51.90
80228;DHT22;69539;42.138;24.742;2023-06-14T02:10:18;24.30;51.80
80228;DHT22;69539;42.138;24.742;2023-06-14T02:12:44;24.30;51.80
80228;DHT22;69539;42.138;24.742;2023-06-14T02:15:09;24.30;51.80
80228;DHT22;69539;42.138;24.742;2023-06-14T02:17:45;24.30;51.80
80228;DHT22;69539;42.138;24.742;2023-06-14T02:20:12;24.30;51.90
80228;DHT22;69539;42.138;24.742;2023-06-14T02:22:38;24.30;51.90
80228;DHT22;69539;42.138;24.742;2023-06-14T02:25:04;24.30;51.90
80228;DHT22;69539;42.138;24.742;2023-06-14T02:27:29;24.30;52.00
80228;DHT22;69539;42.138;24.742;2023-06-14T02:29:55;24.30;52.00
80228;DHT22;69539;42.138;24.742;2023-06-14T02:32:20;24.30;52.00
80228;DHT22;69539;42.138;24.742;2023-06-14T02:34:46;24.30;52.00
80228;DHT22;69539;42.138;24.742;2023-06-14T02:37:15;24.20;52.00
80228;DHT22;69539;42.138;24.742;2023-06-14T02:39:40;24.20;52.00
80228;DHT22;69539;42.138;24.742;2023-06-14T02:42:06;24.20;52.00
80228;DHT22;69539;42.138;24.742;2023-06-14T02:44:32;24.20;52.00
80228;DHT22;69539;42.138;24.742;2023-06-14T02:46:57;24.20;52.10
80228;DHT22;69539;42.138;24.742;2023-06-14T02:49:24;24.10;52.00
80228;DHT22;69539;42.138;24.742;2023-06-14T02:51:49;24.20;52.20
80228;DHT22;69539;42.138;24.742;2023-06-14T02:54:15;24.20;52.30
80228;DHT22;69539;42.138;24.742;2023-06-14T02:56:40;24.20;52.20
80228;DHT22;69539;42.138;24.742;2023-06-14T02:59:06;24.20;52.00
80228;DHT22;69539;42.138;24.742;2023-06-14T03:01:32;24.10;52.10
80228;DHT22;69539;42.138;24.742;2023-06-14T03:04:01;24.10;51.90
80228;DHT22;69539;42.138;24.742;2023-06-14T03:06:31;24.10;51.90
80228;DHT22;69539;42.138;24.742;2023-06-14T03:08:57;24.10;52.10
80228;DHT22;69539;42.138;24.742;2023-06-14T03:11:29;24.10;51.90
80228;DHT22;69539;42.138;24.742;2023-06-14T03:13:55;24.10;52.00
80228;DHT22;69539;42.138;24.742;2023-06-14T03:16:21;24.10;51.90
80228;DHT22;69539;42.138;24.742;2023-06-14T03:18:50;24.10;51.70
80228;DHT22;69539;42.138;24.742;2023-06-14T03:21:16;24.10;51.80
80228;DHT22;69539;42.138;24.742;2023-06-14T03:23:42;24.10;51.80
80228;DHT22;69539;42.138;24.742;2023-06-14T03:26:08;24.10;51.70
80228;DHT22;69539;42.138;24.742;2023-06-14T03:28:33;24.10;51.70
80228;DHT22;69539;42.138;24.742;2023-06-14T03:30:59;24.00;51.60
80228;DHT22;69539;42.138;24.742;2023-06-14T03:33:25;24.00;51.70
80228;DHT22;69539;42.138;24.742;2023-06-14T03:35:50;24.00;51.70
80228;DHT22;69539;42.138;24.742;2023-06-14T03:38:16;24.00;51.80
80228;DHT22;69539;42.138;24.742;2023-06-14T03:40:41;24.00;51.80
80228;DHT22;69539;42.138;24.742;2023-06-14T03:43:07;24.00;51.70
80228;DHT22;69539;42.138;24.742;2023-06-14T03:45:32;24.00;51.70
80228;DHT22;69539;42.138;24.742;2023-06-14T03:47:58;24.00;51.50
80228;DHT22;69539;42.138;24.742;2023-06-14T03:50:26;24.00;51.50
80228;DHT22;69539;42.138;24.742;2023-06-14T03:52:52;24.00;51.60
80228;DHT22;69539;42.138;24.742;2023-06-14T03:55:18;24.00;51.60
80228;DHT22;69539;42.138;24.742;2023-06-14T03:57:44;24.00;51.70
80228;DHT22;69539;42.138;24.742;2023-06-14T04:00:09;24.00;51.60
80228;DHT22;69539;42.138;24.742;2023-06-14T04:02:35;24.00;51.70
80228;DHT22;69539;42.138;24.742;2023-06-14T04:05:02;24.00;51.70
80228;DHT22;69539;42.138;24.742;2023-06-14T04:07:27;24.00;51.80
80228;DHT22;69539;42.138;24.742;2023-06-14T04:09:54;24.00;52.00
80228;DHT22;69539;42.138;24.742;2023-06-14T04:12:19;24.10;52.10
80228;DHT22;69539;42.138;24.742;2023-06-14T04:14:45;24.10;52.20
80228;DHT22;69539;42.138;24.742;2023-06-14T04:17:11;24.00;52.00
80228;DHT22;69539;42.138;24.742;2023-06-14T04:19:36;24.10;52.10
80228;DHT22;69539;42.138;24.742;2023-06-14T04:22:02;24.10;52.30
80228;DHT22;69539;42.138;24.742;2023-06-14T04:24:28;24.10;52.20
80228;DHT22;69539;42.138;24.742;2023-06-14T04:27:00;24.10;52.20
80228;DHT22;69539;42.138;24.742;2023-06-14T04:29:26;24.10;52.10
80228;DHT22;69539;42.138;24.742;2023-06-14T04:31:55;24.10;52.10
80228;DHT22;69539;42.138;24.742;2023-06-14T04:34:26;24.20;52.20
80228;DHT22;69539;42.138;24.742;2023-06-14T04:36:55;24.20;52.00
80228;DHT22;69539;42.138;24.742;2023-06-14T04:39:21;24.20;51.80
80228;DHT22;69539;42.138;24.742;2023-06-14T04:41:47;24.20;51.80
80228;DHT22;69539;42.138;24.742;2023-06-14T04:44:13;24.30;51.80
80228;DHT22;69539;42.138;24.742;2023-06-14T04:46:39;24.30;51.70
80228;DHT22;69539;42.138;24.742;2023-06-14T04:49:13;24.30;51.50
80228;DHT22;69539;42.138;24.742;2023-06-14T04:51:43;24.40;51.30
80228;DHT22;69539;42.138;24.742;2023-06-14T04:54:11;24.40;51.10
80228;DHT22;69539;42.138;24.742;2023-06-14T04:56:41;24.50;51.00
80228;DHT22;69539;42.138;24.742;2023-06-14T04:59:07;24.50;51.10
80228;DHT22;69539;42.138;24.742;2023-06-14T05:01:33;24.50;51.30
80228;DHT22;69539;42.138;24.742;2023-06-14T05:03:59;24.60;50.90
80228;DHT22;69539;42.138;24.742;2023-06-14T05:06:25;24.60;50.90
80228;DHT22;69539;42.138;24.742;2023-06-14T05:08:53;24.60;50.80
80228;DHT22;69539;42.138;24.742;2023-06-14T05:11:18;24.70;50.60
80228;DHT22;69539;42.138;24.742;2023-06-14T05:13:44;24.70;50.60
80228;DHT22;69539;42.138;24.742;2023-06-14T05:16:10;24.80;50.90
80228;DHT22;69539;42.138;24.742;2023-06-14T05:18:36;24.80;51.10
80228;DHT22;69539;42.138;24.742;2023-06-14T05:21:03;24.90;51.10
80228;DHT22;69539;42.138;24.742;2023-06-14T05:23:30;24.90;50.70
80228;DHT22;69539;42.138;24.742;2023-06-14T05:25:56;25.00;50.90
80228;DHT22;69539;42.138;24.742;2023-06-14T05:28:22;25.00;50.80
80228;DHT22;69539;42.138;24.742;2023-06-14T05:30:47;25.00;50.70
80228;DHT22;69539;42.138;24.742;2023-06-14T05:33:13;25.10;50.70
80228;DHT22;69539;42.138;24.742;2023-06-14T05:35:39;25.20;50.60
80228;DHT22;69539;42.138;24.742;2023-06-14T05:38:04;25.20;50.50
80228;DHT22;69539;42.138;24.742;2023-06-14T05:40:31;25.30;50.30
80228;DHT22;69539;42.138;24.742;2023-06-14T05:42:56;25.30;50.30
80228;DHT22;69539;42.138;24.742;2023-06-14T05:45:22;25.40;50.10
80228;DHT22;69539;42.138;24.742;2023-06-14T05:47:47;25.40;50.00
80228;DHT22;69539;42.138;24.742;2023-06-14T05:50:13;25.50;49.90
80228;DHT22;69539;42.138;24.742;2023-06-14T05:52:38;25.50;49.90
80228;DHT22;69539;42.138;24.742;2023-06-14T05:55:04;25.60;49.80
80228;DHT22;69539;42.138;24.742;2023-06-14T05:57:30;25.70;49.50
80228;DHT22;69539;42.138;24.742;2023-06-14T05:59:55;25.70;49.20
80228;DHT22;69539;42.138;24.742;2023-06-14T06:02:21;25.80;49.10
80228;DHT22;69539;42.138;24.742;2023-06-14T06:04:46;25.80;49.00
80228;DHT22;69539;42.138;24.742;2023-06-14T06:07:12;25.90;48.80
80228;DHT22;69539;42.138;24.742;2023-06-14T06:09:37;25.90;48.60
80228;DHT22;69539;42.138;24.742;2023-06-14T06:12:04;25.90;48.70
80228;DHT22;69539;42.138;24.742;2023-06-14T06:14:30;26.00;49.00
80228;DHT22;69539;42.138;24.742;2023-06-14T06:16:56;26.10;48.80
80228;DHT22;69539;42.138;24.742;2023-06-14T06:19:21;26.20;48.60
80228;DHT22;69539;42.138;24.742;2023-06-14T06:21:47;26.20;48.30
80228;DHT22;69539;42.138;24.742;2023-06-14T06:24:12;26.30;48.30
80228;DHT22;69539;42.138;24.742;2023-06-14T06:26:38;26.40;48.10
80228;DHT22;69539;42.138;24.742;2023-06-14T06:29:05;26.50;48.00
80228;DHT22;69539;42.138;24.742;2023-06-14T06:31:30;26.60;48.30
80228;DHT22;69539;42.138;24.742;2023-06-14T06:33:56;26.70;51.80
80228;DHT22;69539;42.138;24.742;2023-06-14T06:36:21;26.90;57.70
80228;DHT22;69539;42.138;24.742;2023-06-14T06:38:47;26.90;52.50
80228;DHT22;69539;42.138;24.742;2023-06-14T06:41:13;27.10;49.60
80228;DHT22;69539;42.138;24.742;2023-06-14T06:43:39;27.20;49.30
80228;DHT22;69539;42.138;24.742;2023-06-14T06:46:04;27.40;49.30
80228;DHT22;69539;42.138;24.742;2023-06-14T06:48:30;27.60;48.60
80228;DHT22;69539;42.138;24.742;2023-06-14T06:50:55;27.80;47.70
80228;DHT22;69539;42.138;24.742;2023-06-14T06:53:21;27.90;47.40
80228;DHT22;69539;42.138;24.742;2023-06-14T06:55:47;28.00;45.50
80228;DHT22;69539;42.138;24.742;2023-06-14T06:58:13;28.00;47.50
80228;DHT22;69539;42.138;24.742;2023-06-14T07:00:39;28.00;45.00
80228;DHT22;69539;42.138;24.742;2023-06-14T07:03:04;28.00;44.60
80228;DHT22;69539;42.138;24.742;2023-06-14T07:05:30;28.10;45.30
80228;DHT22;69539;42.138;24.742;2023-06-14T07:07:55;28.10;45.60
80228;DHT22;69539;42.138;24.742;2023-06-14T07:10:21;28.20;44.60
80228;DHT22;69539;42.138;24.742;2023-06-14T07:12:47;28.20;43.40
80228;DHT22;69539;42.138;24.742;2023-06-14T07:15:12;28.20;42.70
80228;DHT22;69539;42.138;24.742;2023-06-14T07:17:38;28.20;42.90
80228;DHT22;69539;42.138;24.742;2023-06-14T07:20:04;28.20;42.40
80228;DHT22;69539;42.138;24.742;2023-06-14T07:22:33;28.30;41.70
80228;DHT22;69539;42.138;24.742;2023-06-14T07:24:59;28.40;42.40
80228;DHT22;69539;42.138;24.742;2023-06-14T07:27:24;28.40;41.50
80228;DHT22;69539;42.138;24.742;2023-06-14T07:29:50;28.40;41.70
80228;DHT22;69539;42.138;24.742;2023-06-14T07:32:15;28.60;41.70
80228;DHT22;69539;42.138;24.742;2023-06-14T07:34:41;28.70;41.30
80228;DHT22;69539;42.138;24.742;2023-06-14T07:37:06;28.70;41.50
80228;DHT22;69539;42.138;24.742;2023-06-14T07:39:32;28.80;41.60
80228;DHT22;69539;42.138;24.742;2023-06-14T07:41:57;28.80;40.90
80228;DHT22;69539;42.138;24.742;2023-06-14T07:44:23;28.80;40.70
80228;DHT22;69539;42.138;24.742;2023-06-14T07:46:48;28.80;40.50
80228;DHT22;69539;42.138;24.742;2023-06-14T07:49:17;28.80;40.70
80228;DHT22;69539;42.138;24.742;2023-06-14T07:51:42;28.70;40.80
80228;DHT22;69539;42.138;24.742;2023-06-14T07:54:09;28.70;41.20
80228;DHT22;69539;42.138;24.742;2023-06-14T07:56:35;28.70;41.30
80228;DHT22;69539;42.138;24.742;2023-06-14T07:59:01;28.70;41.00
80228;DHT22;69539;42.138;24.742;2023-06-14T08:01:27;28.70;41.50
80228;DHT22;69539;42.138;24.742;2023-06-14T08:03:53;28.70;41.30
80228;DHT22;69539;42.138;24.742;2023-06-14T08:06:19;28.70;40.70
80228;DHT22;69539;42.138;24.742;2023-06-14T08:08:44;28.80;40.80
80228;DHT22;69539;42.138;24.742;2023-06-14T08:11:10;28.80;40.10
80228;DHT22;69539;42.138;24.742;2023-06-14T08:13:35;28.80;40.10
80228;DHT22;69539;42.138;24.742;2023-06-14T08:16:01;28.80;40.30
80228;DHT22;69539;42.138;24.742;2023-06-14T08:18:26;28.80;40.30
80228;DHT22;69539;42.138;24.742;2023-06-14T08:20:52;28.80;40.20
80228;DHT22;69539;42.138;24.742;2023-06-14T08:23:19;28.80;40.10
80228;DHT22;69539;42.138;24.742;2023-06-14T08:25:46;28.80;40.10
80228;DHT22;69539;42.138;24.742;2023-06-14T08:28:12;28.80;40.10
80228;DHT22;69539;42.138;24.742;2023-06-14T08:30:37;28.80;40.40
80228;DHT22;69539;42.138;24.742;2023-06-14T08:33:03;28.90;40.20
80228;DHT22;69539;42.138;24.742;2023-06-14T08:35:28;28.90;40.20
80228;DHT22;69539;42.138;24.742;2023-06-14T08:37:54;29.00;39.60
80228;DHT22;69539;42.138;24.742;2023-06-14T08:40:20;29.00;39.40
80228;DHT22;69539;42.138;24.742;2023-06-14T08:42:47;29.00;39.60
80228;DHT22;69539;42.138;24.742;2023-06-14T08:45:13;29.10;39.80
80228;DHT22;69539;42.138;24.742;2023-06-14T08:47:39;29.20;39.70
80228;DHT22;69539;42.138;24.742;2023-06-14T08:50:05;29.30;39.70
80228;DHT22;69539;42.138;24.742;2023-06-14T08:52:32;29.30;39.80
80228;DHT22;69539;42.138;24.742;2023-06-14T08:55:00;29.40;39.60
80228;DHT22;69539;42.138;24.742;2023-06-14T08:57:27;29.40;39.50
80228;DHT22;69539;42.138;24.742;2023-06-14T08:59:55;29.40;39.40
80228;DHT22;69539;42.138;24.742;2023-06-14T09:02:22;29.50;39.00
80228;DHT22;69539;42.138;24.742;2023-06-14T09:04:47;29.60;39.40
80228;DHT22;69539;42.138;24.742;2023-06-14T09:07:14;29.70;39.30
80228;DHT22;69539;42.138;24.742;2023-06-14T09:09:40;29.70;38.60
80228;DHT22;69539;42.138;24.742;2023-06-14T09:12:10;29.90;37.90
80228;DHT22;69539;42.138;24.742;2023-06-14T09:14:36;29.90;37.40
80228;DHT22;69539;42.138;24.742;2023-06-14T09:17:05;29.90;37.20
80228;DHT22;69539;42.138;24.742;2023-06-14T09:19:30;29.90;37.50
80228;DHT22;69539;42.138;24.742;2023-06-14T09:21:56;29.90;37.90
80228;DHT22;69539;42.138;24.742;2023-06-14T09:24:23;29.90;37.90
80228;DHT22;69539;42.138;24.742;2023-06-14T09:26:50;29.80;37.60
80228;DHT22;69539;42.138;24.742;2023-06-14T09:29:16;29.70;37.30
80228;DHT22;69539;42.138;24.742;2023-06-14T09:31:42;29.70;37.00
80228;DHT22;69539;42.138;24.742;2023-06-14T09:34:07;29.70;36.80
80228;DHT22;69539;42.138;24.742;2023-06-14T09:36:34;29.60;36.60
80228;DHT22;69539;42.138;24.742;2023-06-14T09:39:00;29.60;36.80
80228;DHT22;69539;42.138;24.742;2023-06-14T09:44:00;29.50;36.90
80228;DHT22;69539;42.138;24.742;2023-06-14T09:46:27;29.50;37.00
80228;DHT22;69539;42.138;24.742;2023-06-14T09:48:55;29.50;37.20
80228;DHT22;69539;42.138;24.742;2023-06-14T09:51:21;29.50;37.20
80228;DHT22;69539;42.138;24.742;2023-06-14T09:53:48;29.50;37.70
80228;DHT22;69539;42.138;24.742;2023-06-14T09:56:15;29.40;37.90
80228;DHT22;69539;42.138;24.742;2023-06-14T09:58:42;29.40;37.90
80228;DHT22;69539;42.138;24.742;2023-06-14T10:01:08;29.40;38.20
80228;DHT22;69539;42.138;24.742;2023-06-14T10:03:34;29.40;37.90
80228;DHT22;69539;42.138;24.742;2023-06-14T10:05:59;29.40;37.70
80228;DHT22;69539;42.138;24.742;2023-06-14T10:08:27;29.40;37.60
80228;DHT22;69539;42.138;24.742;2023-06-14T10:10:57;29.40;37.60
80228;DHT22;69539;42.138;24.742;2023-06-14T10:13:22;29.40;37.70
80228;DHT22;69539;42.138;24.742;2023-06-14T10:15:51;29.40;37.60
80228;DHT22;69539;42.138;24.742;2023-06-14T10:18:40;29.40;37.60
80228;DHT22;69539;42.138;24.742;2023-06-14T10:21:12;29.50;38.50
80228;DHT22;69539;42.138;24.742;2023-06-14T10:23:40;29.50;38.60
80228;DHT22;69539;42.138;24.742;2023-06-14T10:26:07;29.60;38.80
80228;DHT22;69539;42.138;24.742;2023-06-14T10:28:33;29.70;39.20
80228;DHT22;69539;42.138;24.742;2023-06-14T10:31:02;29.70;39.30
80228;DHT22;69539;42.138;24.742;2023-06-14T10:33:29;29.80;38.70
80228;DHT22;69539;42.138;24.742;2023-06-14T10:36:08;29.80;38.10
80228;DHT22;69539;42.138;24.742;2023-06-14T10:38:34;29.80;38.20
80228;DHT22;69539;42.138;24.742;2023-06-14T10:41:01;29.80;38.00
80228;DHT22;69539;42.138;24.742;2023-06-14T10:43:27;29.90;37.40
80228;DHT22;69539;42.138;24.742;2023-06-14T10:48:40;29.90;37.40
80228;DHT22;69539;42.138;24.742;2023-06-14T10:51:06;29.90;37.30
80228;DHT22;69539;42.138;24.742;2023-06-14T10:53:40;29.90;36.80
80228;DHT22;69539;42.138;24.742;2023-06-14T10:56:06;29.90;37.10
80228;DHT22;69539;42.138;24.742;2023-06-14T10:58:32;29.90;37.40
80228;DHT22;69539;42.138;24.742;2023-06-14T11:00:57;29.90;37.80
80228;DHT22;69539;42.138;24.742;2023-06-14T11:03:35;29.90;37.60
80228;DHT22;69539;42.138;24.742;2023-06-14T11:06:02;29.90;37.60
80228;DHT22;69539;42.138;24.742;2023-06-14T11:11:21;29.90;36.90
80228;DHT22;69539;42.138;24.742;2023-06-14T11:13:47;30.00;37.20
80228;DHT22;69539;42.138;24.742;2023-06-14T11:16:13;30.00;36.00
80228;DHT22;69539;42.138;24.742;2023-06-14T11:18:40;30.00;35.60
80228;DHT22;69539;42.138;24.742;2023-06-14T11:21:05;29.90;35.80
80228;DHT22;69539;42.138;24.742;2023-06-14T11:23:31;29.90;36.20
80228;DHT22;69539;42.138;24.742;2023-06-14T11:25:57;30.00;36.60
80228;DHT22;69539;42.138;24.742;2023-06-14T11:28:22;29.90;36.80
80228;DHT22;69539;42.138;24.742;2023-06-14T11:30:49;30.00;36.80
80228;DHT22;69539;42.138;24.742;2023-06-14T11:33:24;30.00;36.30
80228;DHT22;69539;42.138;24.742;2023-06-14T11:35:50;30.00;36.10
80228;DHT22;69539;42.138;24.742;2023-06-14T11:38:16;30.00;36.30
80228;DHT22;69539;42.138;24.742;2023-06-14T11:40:42;30.00;36.10
80228;DHT22;69539;42.138;24.742;2023-06-14T11:43:07;30.00;36.10
80228;DHT22;69539;42.138;24.742;2023-06-14T11:45:33;30.00;37.40
80228;DHT22;69539;42.138;24.742;2023-06-14T11:47:58;30.00;36.20
80228;DHT22;69539;42.138;24.742;2023-06-14T11:50:24;30.00;35.60
80228;DHT22;69539;42.138;24.742;2023-06-14T11:52:54;29.90;35.50
80228;DHT22;69539;42.138;24.742;2023-06-14T11:55:20;29.90;35.60
80228;DHT22;69539;42.138;24.742;2023-06-14T11:57:46;29.90;35.90
80228;DHT22;69539;42.138;24.742;2023-06-14T12:00:12;29.90;36.20
80228;DHT22;69539;42.138;24.742;2023-06-14T12:02:38;29.90;36.30
80228;DHT22;69539;42.138;24.742;2023-06-14T12:05:04;29.90;36.60
80228;DHT22;69539;42.138;24.742;2023-06-14T12:07:33;29.90;36.90
80228;DHT22;69539;42.138;24.742;2023-06-14T12:12:24;29.80;36.20
80228;DHT22;69539;42.138;24.742;2023-06-14T12:14:56;29.80;36.40
80228;DHT22;69539;42.138;24.742;2023-06-14T12:17:22;29.80;35.60
80228;DHT22;69539;42.138;24.742;2023-06-14T12:19:48;29.80;35.80
80228;DHT22;69539;42.138;24.742;2023-06-14T12:22:15;29.70;36.00
80228;DHT22;69539;42.138;24.742;2023-06-14T12:24:44;29.70;36.20
80228;DHT22;69539;42.138;24.742;2023-06-14T12:27:09;29.70;35.90
80228;DHT22;69539;42.138;24.742;2023-06-14T12:29:40;29.70;36.10
80228;DHT22;69539;42.138;24.742;2023-06-14T12:32:06;29.60;35.60
80228;DHT22;69539;42.138;24.742;2023-06-14T12:34:32;29.60;36.00
80228;DHT22;69539;42.138;24.742;2023-06-14T12:36:57;29.60;36.30
80228;DHT22;69539;42.138;24.742;2023-06-14T12:39:23;29.60;36.40
80228;DHT22;69539;42.138;24.742;2023-06-14T12:41:50;29.60;36.20
80228;DHT22;69539;42.138;24.742;2023-06-14T12:44:15;29.60;36.20
80228;DHT22;69539;42.138;24.742;2023-06-14T12:46:41;29.50;35.80
80228;DHT22;69539;42.138;24.742;2023-06-14T12:49:08;29.50;35.60
80228;DHT22;69539;42.138;24.742;2023-06-14T12:51:34;29.50;35.80
80228;DHT22;69539;42.138;24.742;2023-06-14T12:54:00;29.50;36.00
80228;DHT22;69539;42.138;24.742;2023-06-14T12:56:25;29.50;35.90
80228;DHT22;69539;42.138;24.742;2023-06-14T12:58:51;29.50;35.80
80228;DHT22;69539;42.138;24.742;2023-06-14T13:01:17;29.50;35.10
80228;DHT22;69539;42.138;24.742;2023-06-14T13:03:42;29.40;35.20
80228;DHT22;69539;42.138;24.742;2023-06-14T13:06:08;29.50;35.00
80228;DHT22;69539;42.138;24.742;2023-06-14T13:08:33;29.40;35.20
80228;DHT22;69539;42.138;24.742;2023-06-14T13:10:59;29.40;35.00
80228;DHT22;69539;42.138;24.742;2023-06-14T13:13:25;29.40;34.30
80228;DHT22;69539;42.138;24.742;2023-06-14T13:15:51;29.40;34.70
80228;DHT22;69539;42.138;24.742;2023-06-14T13:18:16;29.40;34.60
80228;DHT22;69539;42.138;24.742;2023-06-14T13:20:42;29.30;34.80
80228;DHT22;69539;42.138;24.742;2023-06-14T13:23:08;29.30;35.00
80228;DHT22;69539;42.138;24.742;2023-06-14T13:25:35;29.40;35.30
80228;DHT22;69539;42.138;24.742;2023-06-14T13:28:00;29.40;35.30
80228;DHT22;69539;42.138;24.742;2023-06-14T13:30:26;29.40;35.10
80228;DHT22;69539;42.138;24.742;2023-06-14T13:32:52;29.40;35.60
80228;DHT22;69539;42.138;24.742;2023-06-14T13:35:18;29.40;36.10
80228;DHT22;69539;42.138;24.742;2023-06-14T13:37:43;29.40;36.60
80228;DHT22;69539;42.138;24.742;2023-06-14T13:40:09;29.40;36.80
80228;DHT22;69539;42.138;24.742;2023-06-14T13:42:35;29.40;36.90
80228;DHT22;69539;42.138;24.742;2023-06-14T13:45:01;29.40;37.00
80228;DHT22;69539;42.138;24.742;2023-06-14T13:47:27;29.40;36.60
80228;DHT22;69539;42.138;24.742;2023-06-14T13:49:53;29.40;36.00
80228;DHT22;69539;42.138;24.742;2023-06-14T13:52:19;29.30;36.30
80228;DHT22;69539;42.138;24.742;2023-06-14T13:54:44;29.30;36.70
80228;DHT22;69539;42.138;24.742;2023-06-14T13:57:10;29.30;36.90
80228;DHT22;69539;42.138;24.742;2023-06-14T13:59:38;29.30;37.00
80228;DHT22;69539;42.138;24.742;2023-06-14T14:02:04;29.20;36.90
80228;DHT22;69539;42.138;24.742;2023-06-14T14:04:30;29.30;37.20
80228;DHT22;69539;42.138;24.742;2023-06-14T14:06:56;29.20;37.10
80228;DHT22;69539;42.138;24.742;2023-06-14T14:09:21;29.20;36.80
80228;DHT22;69539;42.138;24.742;2023-06-14T14:11:47;29.20;36.80
80228;DHT22;69539;42.138;24.742;2023-06-14T14:14:14;29.20;36.60
80228;DHT22;69539;42.138;24.742;2023-06-14T14:16:39;29.20;35.00
80228;DHT22;69539;42.138;24.742;2023-06-14T14:19:05;29.20;34.30
80228;DHT22;69539;42.138;24.742;2023-06-14T14:21:32;29.30;35.70
80228;DHT22;69539;42.138;24.742;2023-06-14T14:23:57;29.20;34.90
80228;DHT22;69539;42.138;24.742;2023-06-14T14:26:23;29.20;35.40
80228;DHT22;69539;42.138;24.742;2023-06-14T14:28:50;29.20;35.90
80228;DHT22;69539;42.138;24.742;2023-06-14T14:31:15;29.20;36.10
80228;DHT22;69539;42.138;24.742;2023-06-14T14:33:41;29.30;35.70
80228;DHT22;69539;42.138;24.742;2023-06-14T14:36:06;29.20;35.60
80228;DHT22;69539;42.138;24.742;2023-06-14T14:38:33;29.20;35.80
80228;DHT22;69539;42.138;24.742;2023-06-14T14:40:58;29.20;35.10
80228;DHT22;69539;42.138;24.742;2023-06-14T14:43:24;29.10;35.20
80228;DHT22;69539;42.138;24.742;2023-06-14T14:45:50;29.20;35.20
80228;DHT22;69539;42.138;24.742;2023-06-14T14:48:15;29.20;35.10
80228;DHT22;69539;42.138;24.742;2023-06-14T14:50:41;29.10;35.30
80228;DHT22;69539;42.138;24.742;2023-06-14T14:53:06;29.10;35.30
80228;DHT22;69539;42.138;24.742;2023-06-14T14:55:32;29.10;35.30
80228;DHT22;69539;42.138;24.742;2023-06-14T14:58:00;29.10;35.30
80228;DHT22;69539;42.138;24.742;2023-06-14T15:00:25;29.10;35.40
80228;DHT22;69539;42.138;24.742;2023-06-14T15:02:51;29.00;35.60
80228;DHT22;69539;42.138;24.742;2023-06-14T15:05:17;29.10;35.70
80228;DHT22;69539;42.138;24.742;2023-06-14T15:07:42;29.00;35.90
80228;DHT22;69539;42.138;24.742;2023-06-14T15:10:09;29.00;36.00
80228;DHT22;69539;42.138;24.742;2023-06-14T15:12:35;29.00;36.20
80228;DHT22;69539;42.138;24.742;2023-06-14T15:15:01;29.00;35.90
80228;DHT22;69539;42.138;24.742;2023-06-14T15:17:27;29.00;36.00
80228;DHT22;69539;42.138;24.742;2023-06-14T15:19:52;29.00;36.30
80228;DHT22;69539;42.138;24.742;2023-06-14T15:22:18;29.00;36.80
80228;DHT22;69539;42.138;24.742;2023-06-14T15:24:44;28.90;36.70